| time (UTC) | temp C | wind direction | speed KPH | gust KPH | rain 1hr cm | rain 24hr cm | rain mn cm | humidity % | barometer mb |
| 20260505125006 | 16 | 119 | 0.0 | 0.0 | 0.00 | 0.61 | 0.61 | 95 | 1003.7 |
| 20260505124500 | 16 | 141 | 1.6 | 6.4 | 0.00 | 0.61 | 0.61 | 95 | 1003.8 |
| 20260505123954 | 16 | 157 | 3.2 | 11.3 | 0.00 | 0.61 | 0.61 | 95 | 1003.7 |
| 20260505123455 | 16 | 164 | 3.2 | 11.3 | 0.00 | 0.61 | 0.61 | 95 | 1003.8 |
| 20260505122956 | 16 | 147 | 3.2 | 11.3 | 0.00 | 0.61 | 0.61 | 95 | 1003.3 |
| 20260505122712 | 15 | 135 | 4.8 | 11.3 | 0.03 | 0.61 | 0.61 | 95 | 1003.1 |
| 20260505121954 | 15 | 144 | 4.8 | 16.1 | 0.03 | 0.61 | 0.61 | 95 | 1003.3 |
| 20260505121453 | 15 | 130 | 4.8 | 16.1 | 0.03 | 0.61 | 0.61 | 95 | 1003.4 |
| 20260505120952 | 15 | 173 | 4.8 | 14.5 | 0.05 | 0.61 | 0.61 | 95 | 1003.4 |
| 20260505120714 | 15 | 132 | 3.2 | 14.5 | 0.05 | 0.61 | 0.61 | 95 | 1003.4 |
| 20260505115952 | 15 | 125 | 4.8 | 11.3 | 0.05 | 0.61 | 0.61 | 95 | 1003.4 |
| 20260505115451 | 15 | 122 | 3.2 | 9.7 | 0.05 | 0.61 | 0.61 | 95 | 1003.4 |
| 20260505114950 | 15 | 188 | 3.2 | 9.7 | 0.05 | 0.61 | 0.61 | 95 | 1003.5 |
| 20260505113951 | 15 | 171 | 3.2 | 9.7 | 0.08 | 0.61 | 0.61 | 95 | 1003.7 |
| 20260505113451 | 15 | 198 | 3.2 | 9.7 | 0.08 | 0.61 | 0.61 | 95 | 1003.8 |
| 20260505112952 | 15 | 193 | 3.2 | 6.4 | 0.10 | 0.61 | 0.61 | 95 | 1004.0 |
| 20260505112712 | 15 | 144 | 3.2 | 9.7 | 0.15 | 0.58 | 0.58 | 95 | 1004.0 |
| 20260505111959 | 15 | 134 | 3.2 | 9.7 | 0.18 | 0.58 | 0.58 | 95 | 1004.3 |
| 20260505111501 | 15 | 131 | 1.6 | 8.0 | 0.18 | 0.58 | 0.58 | 95 | 1004.3 |
| 20260505111428 | 15 | 113 | 0.0 | 3.2 | 0.18 | 0.56 | 0.56 | 95 | 1004.5 |
| 20260505110459 | 16 | 126 | 0.0 | 0.0 | 0.18 | 0.56 | 0.56 | 95 | 1004.7 |
| 20260505101946 | 15 | 127 | 0.0 | 1.6 | 0.18 | 0.41 | 0.41 | 94 | 1004.4 |
| 20260505101447 | 15 | 127 | 0.0 | 4.8 | 0.20 | 0.41 | 0.41 | 94 | 1004.4 |
| 20260505100946 | 15 | 127 | 1.6 | 8.0 | 0.20 | 0.38 | 0.38 | 94 | 1004.0 |
| 20260505100448 | 15 | 165 | 3.2 | 8.0 | 0.23 | 0.38 | 0.38 | 94 | 1003.5 |
| 20260505095947 | 15 | 131 | 1.6 | 4.8 | 0.25 | 0.38 | 0.38 | 94 | 1003.9 |
| 20260505095441 | 16 | 150 | 0.0 | 4.8 | 0.28 | 0.38 | 0.38 | 93 | 1004.0 |
| 20260505095204 | 16 | 281 | 0.0 | 1.6 | 0.25 | 0.36 | 0.36 | 93 | 1003.9 |
| 20260505094429 | 16 | 281 | 0.0 | 3.2 | 0.28 | 0.36 | 0.36 | 93 | 1004.3 |
| 20260505093923 | 16 | 281 | 0.0 | 3.2 | 0.25 | 0.33 | 0.33 | 92 | 1003.7 |
| 20260505093639 | 16 | 309 | 0.0 | 1.6 | 0.23 | 0.30 | 0.30 | 92 | 1002.4 |
| 20260505092911 | 16 | 305 | 0.0 | 3.2 | 0.23 | 0.28 | 0.28 | 92 | 1003.9 |
| 20260505092405 | 16 | 305 | 0.0 | 3.2 | 0.23 | 0.25 | 0.25 | 92 | 1004.6 |
| 20260505091859 | 16 | 304 | 0.0 | 3.2 | 0.23 | 0.23 | 0.23 | 92 | 1004.8 |
| 20260505091353 | 16 | 304 | 0.0 | 3.2 | 0.20 | 0.20 | 0.20 | 91 | 1004.8 |
| 20260505091108 | 16 | 317 | 0.0 | 1.6 | 0.18 | 0.18 | 0.18 | 91 | 1004.4 |
| 20260505090613 | 16 | 102 | 0.0 | 0.0 | 0.15 | 0.15 | 0.15 | 90 | 1004.6 |
| 20260505090106 | 16 | 102 | 0.0 | 0.0 | 0.13 | 0.13 | 0.13 | 88 | 1004.2 |
| 20260505085346 | 16 | 102 | 0.0 | 0.0 | 0.10 | 0.10 | 0.10 | 88 | 1003.8 |
| 20260505084847 | 16 | 102 | 0.0 | 0.0 | 0.10 | 0.10 | 0.10 | 87 | 1003.8 |
| 20260505084346 | 17 | 102 | 0.0 | 0.0 | 0.08 | 0.08 | 0.08 | 86 | 1003.7 |
| 20260505083846 | 17 | 102 | 0.0 | 0.0 | 0.08 | 0.08 | 0.08 | 85 | 1003.5 |
| 20260505083346 | 17 | 102 | 0.0 | 0.0 | 0.08 | 0.08 | 0.08 | 82 | 1003.1 |
| 20260505082846 | 18 | 102 | 0.0 | 0.0 | 0.05 | 0.05 | 0.05 | 81 | 1003.2 |
| 20260505082345 | 18 | 113 | 0.0 | 0.0 | 0.03 | 0.03 | 0.03 | 78 | 1003.5 |
| 20260505081844 | 18 | 113 | 0.0 | 0.0 | 0.00 | 0.00 | 0.00 | 75 | 1003.7 |
| 20260505081340 | 19 | 113 | 0.0 | 0.0 | 0.00 | 0.00 | 0.00 | 73 | 1003.8 |
| 20260505080838 | 19 | 113 | 0.0 | 0.0 | 0.00 | 0.00 | 0.00 | 72 | 1003.3 |
| 20260505080600 | 19 | 113 | 0.0 | 9.7 | 0.00 | 0.00 | 0.00 | 71 | 1003.3 |
| 20260505080109 | 19 | 113 | 0.0 | 9.7 | 0.00 | 0.00 | 0.00 | 70 | 1003.2 |
| 20260505075335 | 19 | 140 | 0.0 | 6.4 | 0.00 | 0.00 | 0.00 | 70 | 1003.3 |
| 20260505074836 | 19 | 111 | 3.2 | 11.3 | 0.00 | 0.00 | 0.00 | 70 | 1002.9 |
| 20260505074336 | 19 | 136 | 4.8 | 12.9 | 0.00 | 0.00 | 0.00 | 69 | 1002.6 |
| 20260505073836 | 19 | 137 | 3.2 | 12.9 | 0.00 | 0.00 | 0.00 | 70 | 1002.6 |
| 20260505073555 | 19 | 140 | 1.6 | 9.7 | 0.00 | 0.00 | 0.00 | 69 | 1003.0 |
| 20260505072825 | 19 | 140 | 3.2 | 11.3 | 0.00 | 0.00 | 0.00 | 70 | 1003.2 |
| 20260505072319 | 19 | 107 | 3.2 | 11.3 | 0.00 | 0.00 | 0.00 | 69 | 1003.0 |
| 20260505072036 | 19 | 144 | 3.2 | 9.7 | 0.00 | 0.00 | 0.00 | 69 | 1003.3 |
| 20260505071539 | 19 | 126 | 1.6 | 6.4 | 0.00 | 0.00 | 0.00 | 70 | 1003.3 |
| 20260505070801 | 19 | 172 | 4.8 | 14.5 | 0.00 | 0.00 | 0.00 | 70 | 1003.5 |
| 20260505070255 | 19 | 148 | 6.4 | 14.5 | 0.00 | 0.00 | 0.00 | 70 | 1003.4 |
| 20260505065749 | 19 | 131 | 3.2 | 14.5 | 0.00 | 0.00 | 0.00 | 71 | 1003.7 |
| 20260505065243 | 18 | 147 | 3.2 | 9.7 | 0.00 | 0.00 | 0.00 | 71 | 1003.8 |
| 20260505064736 | 18 | 131 | 1.6 | 6.4 | 0.00 | 0.00 | 0.00 | 71 | 1003.9 |
| 20260505064232 | 18 | 147 | 1.6 | 6.4 | 0.00 | 0.00 | 0.00 | 72 | 1003.9 |
| 20260505063725 | 18 | 144 | 0.0 | 4.8 | 0.00 | 0.00 | 0.00 | 73 | 1004.1 |
| 20260505063219 | 18 | 175 | 0.0 | 0.0 | 0.00 | 0.00 | 0.00 | 72 | 1004.3 |
| 20260505062713 | 18 | 175 | 0.0 | 0.0 | 0.00 | 0.00 | 0.00 | 72 | 1004.2 |
| 20260505062207 | 18 | 151 | 0.0 | 0.0 | 0.00 | 0.00 | 0.00 | 71 | 1004.2 |
| 20260505061700 | 19 | 151 | 0.0 | 3.2 | 0.00 | 0.00 | 0.00 | 71 | 1004.2 |
| 20260505061202 | 19 | 164 | 0.0 | 3.2 | 0.00 | 0.00 | 0.00 | 70 | 1004.4 |
| 20260505060701 | 19 | 153 | 1.6 | 11.3 | 0.00 | 0.00 | 0.00 | 70 | 1004.4 |
| 20260505060201 | 19 | 116 | 1.6 | 11.3 | 0.00 | 0.00 | 0.00 | 69 | 1004.5 |
| 20260505055659 | 19 | 140 | 3.2 | 9.7 | 0.00 | 0.00 | 0.00 | 70 | 1004.3 |
| 20260505055158 | 19 | 163 | 3.2 | 11.3 | 0.00 | 0.00 | 0.00 | 70 | 1004.5 |
| 20260505054658 | 19 | 138 | 4.8 | 11.3 | 0.00 | 0.00 | 0.00 | 69 | 1004.3 |
| 20260505054158 | 19 | 146 | 4.8 | 11.3 | 0.00 | 0.00 | 0.00 | 70 | 1004.2 |
| 20260505053657 | 19 | 111 | 3.2 | 11.3 | 0.00 | 0.00 | 0.00 | 70 | 1004.4 |
| 20260505053157 | 19 | 117 | 3.2 | 11.3 | 0.00 | 0.00 | 0.00 | 71 | 1004.5 |
| 20260505052655 | 19 | 158 | 3.2 | 11.3 | 0.00 | 0.00 | 0.00 | 71 | 1004.5 |
| 20260505052154 | 19 | 115 | 3.2 | 9.7 | 0.00 | 0.00 | 0.00 | 71 | 1004.6 |
| 20260505051655 | 19 | 121 | 3.2 | 9.7 | 0.00 | 0.00 | 0.00 | 71 | 1004.7 |
| 20260505051154 | 18 | 163 | 3.2 | 11.3 | 0.00 | 0.00 | 0.00 | 71 | 1004.7 |
| 20260505050918 | 18 | 106 | 3.2 | 11.3 | 0.00 | 0.00 | 0.00 | 72 | 1004.7 |
| 20260505050410 | 18 | 128 | 1.6 | 4.8 | 0.00 | 0.00 | 0.00 | 72 | 1004.8 |
| 20260505041623 | 18 | 125 | 1.6 | 6.4 | 0.00 | 0.00 | 0.00 | 72 | 1005.1 |
| 20260505041123 | 18 | 159 | 0.0 | 6.4 | 0.00 | 0.00 | 0.00 | 72 | 1005.2 |
| 20260505040623 | 18 | 167 | 0.0 | 6.4 | 0.00 | 0.00 | 0.00 | 73 | 1005.2 |
| 20260505040122 | 18 | 119 | 0.0 | 0.0 | 0.00 | 0.00 | 0.00 | 73 | 1005.3 |
| 20260505035619 | 17 | 116 | 0.0 | 0.0 | 0.00 | 0.00 | 0.00 | 75 | 1005.3 |
| 20260505035342 | 17 | 127 | 0.0 | 3.2 | 0.00 | 0.00 | 0.00 | 76 | 1005.4 |
| 20260505034841 | 17 | 127 | 0.0 | 3.2 | 0.00 | 0.00 | 0.00 | 76 | 1005.4 |
| 20260505034117 | 17 | 189 | 0.0 | 0.0 | 0.00 | 0.00 | 0.00 | 77 | 1005.6 |
| 20260505033615 | 17 | 189 | 0.0 | 0.0 | 0.00 | 0.00 | 0.00 | 77 | 1005.8 |
| 20260505033115 | 17 | 189 | 0.0 | 0.0 | 0.00 | 0.00 | 0.00 | 77 | 1005.7 |
| 20260505032614 | 17 | 189 | 0.0 | 0.0 | 0.00 | 0.00 | 0.00 | 78 | 1005.7 |
| 20260505032113 | 17 | 189 | 0.0 | 0.0 | 0.00 | 0.00 | 0.00 | 77 | 1005.8 |
| 20260505031612 | 17 | 189 | 0.0 | 0.0 | 0.00 | 0.00 | 0.00 | 76 | 1005.7 |
| 20260505031113 | 17 | 123 | 0.0 | 0.0 | 0.00 | 0.00 | 0.00 | 76 | 1005.5 |
| 20260505030613 | 17 | 123 | 0.0 | 0.0 | 0.00 | 0.00 | 0.00 | 74 | 1005.7 |
| 20260505030114 | 18 | 123 | 0.0 | 0.0 | 0.00 | 0.00 | 0.00 | 73 | 1005.6 |
| 20260505025610 | 18 | 123 | 0.0 | 0.0 | 0.00 | 0.00 | 0.00 | 73 | 1005.4 |
| 20260505025552 | 18 | 123 | 0.0 | 0.0 | 0.00 | 0.00 | 0.00 | 72 | 1005.5 |
| 20260505024605 | 18 | 123 | 0.0 | 0.0 | 0.00 | 0.00 | 0.00 | 70 | 1005.4 |
| 20260505024059 | 19 | 123 | 0.0 | 3.2 | 0.00 | 0.00 | 0.00 | 70 | 1005.3 |
| 20260505023821 | 19 | 123 | 0.0 | 8.0 | 0.00 | 0.00 | 0.00 | 69 | 1005.2 |
| 20260505023047 | 20 | 123 | 0.0 | 8.0 | 0.00 | 0.00 | 0.00 | 67 | 1005.1 |
| 20260505022541 | 20 | 141 | 0.0 | 4.8 | 0.00 | 0.00 | 0.00 | 67 | 1005.0 |
| 20260505022035 | 20 | 153 | 1.6 | 6.4 | 0.00 | 0.00 | 0.00 | 66 | 1004.9 |
| 20260505021529 | 20 | 155 | 1.6 | 6.4 | 0.00 | 0.00 | 0.00 | 66 | 1004.8 |
| 20260505021023 | 20 | 134 | 3.2 | 6.4 | 0.00 | 0.00 | 0.00 | 66 | 1004.8 |
| 20260505020741 | 20 | 146 | 3.2 | 8.0 | 0.00 | 0.00 | 0.00 | 65 | 1004.6 |
| 20260505020011 | 20 | 163 | 1.6 | 9.7 | 0.00 | 0.00 | 0.00 | 65 | 1004.6 |
| 20260505015729 | 20 | 159 | 0.0 | 9.7 | 0.00 | 0.00 | 0.00 | 65 | 1004.5 |
| 20260505015220 | 20 | 134 | 0.0 | 4.8 | 0.00 | 0.00 | 0.00 | 65 | 1004.5 |
| 20260505014453 | 20 | 152 | 0.0 | 4.8 | 0.00 | 0.00 | 0.00 | 64 | 1004.5 |
| 20260505013947 | 20 | 161 | 1.6 | 8.0 | 0.00 | 0.00 | 0.00 | 64 | 1004.5 |
| 20260505013441 | 21 | 171 | 1.6 | 8.0 | 0.00 | 0.00 | 0.00 | 64 | 1004.5 |
| 20260505012935 | 21 | 106 | 0.0 | 9.7 | 0.00 | 0.00 | 0.00 | 63 | 1004.4 |
| 20260505012429 | 21 | 181 | 1.6 | 9.7 | 0.00 | 0.00 | 0.00 | 63 | 1004.4 |
| 20260505011923 | 21 | 157 | 1.6 | 8.0 | 0.00 | 0.00 | 0.00 | 63 | 1004.3 |
| 20260505011416 | 21 | 178 | 0.0 | 4.8 | 0.00 | 0.00 | 0.00 | 62 | 1004.3 |
| 20260505010911 | 21 | 133 | 1.6 | 9.7 | 0.00 | 0.00 | 0.00 | 61 | 1004.2 |
| 20260505010405 | 21 | 161 | 1.6 | 9.7 | 0.00 | 0.00 | 0.00 | 61 | 1004.2 |
| 20260505005859 | 22 | 170 | 1.6 | 8.0 | 0.00 | 0.00 | 0.00 | 61 | 1004.1 |
| 20260505005353 | 22 | 203 | 3.2 | 11.3 | 0.00 | 0.00 | 0.00 | 60 | 1004.2 |
| 20260505004846 | 22 | 185 | 4.8 | 14.5 | 0.00 | 0.00 | 0.00 | 60 | 1004.1 |
| 20260505004605 | 22 | 178 | 4.8 | 14.5 | 0.00 | 0.00 | 0.00 | 59 | 1004.1 |
| 20260505003835 | 22 | 145 | 3.2 | 16.1 | 0.00 | 0.00 | 0.00 | 59 | 1004.0 |
| 20260505003329 | 22 | 215 | 3.2 | 19.3 | 0.00 | 0.00 | 0.00 | 58 | 1003.9 |
| 20260505002823 | 22 | 190 | 3.2 | 19.3 | 0.00 | 0.00 | 0.00 | 58 | 1003.9 |
| 20260505002317 | 23 | 148 | 3.2 | 12.9 | 0.00 | 0.00 | 0.00 | 57 | 1003.7 |
| 20260505002027 | 23 | 185 | 4.8 | 20.9 | 0.00 | 0.00 | 0.00 | 57 | 1003.5 |
| 20260505001305 | 23 | 197 | 3.2 | 20.9 | 0.00 | 0.00 | 0.00 | 57 | 1003.5 |
| 20260505000759 | 23 | 149 | 1.6 | 12.9 | 0.00 | 0.00 | 0.00 | 57 | 1003.7 |
| 20260505000253 | 23 | 130 | 3.2 | 16.1 | 0.00 | 0.00 | 0.00 | 57 | 1003.7 |
| 20260505000013 | 23 | 154 | 1.6 | 16.1 | 0.00 | 0.00 | 0.00 | 55 | 1003.7 |
| 20260504235241 | 23 | 169 | 1.6 | 12.9 | 0.00 | 0.00 | 0.00 | 57 | 1003.8 |
| 20260504234737 | 23 | 147 | 3.2 | 16.1 | 0.00 | 0.00 | 0.00 | 55 | 1003.9 |
| 20260504234424 | 24 | 156 | 3.2 | 14.5 | 0.00 | 0.00 | 0.00 | 54 | 1004.0 |
| 20260504234315 | 23 | 151 | 3.2 | 16.1 | 0.00 | 0.00 | 0.00 | 54 | 1003.9 |
| 20260504233229 | 24 | 188 | 3.2 | 14.5 | 0.00 | 0.00 | 0.00 | 53 | 1004.1 |
| 20260504232729 | 24 | 171 | 3.2 | 14.5 | 0.00 | 0.00 | 0.00 | 53 | 1004.1 |
| 20260504232229 | 24 | 126 | 3.2 | 14.5 | 0.00 | 0.00 | 0.00 | 53 | 1004.2 |
| 20260504231742 | 24 | 169 | 3.2 | 14.5 | 0.00 | 0.00 | 0.00 | 53 | 1004.2 |
| 20260504231226 | 24 | 166 | 4.8 | 19.3 | 0.00 | 0.00 | 0.00 | 53 | 1004.3 |
| 20260504230723 | 24 | 182 | 6.4 | 19.3 | 0.00 | 0.00 | 0.00 | 52 | 1004.3 |
| 20260504230223 | 24 | 84 | 4.8 | 22.5 | 0.00 | 0.00 | 0.00 | 52 | 1004.2 |
| 20260504225725 | 25 | 198 | 3.2 | 22.5 | 0.00 | 0.00 | 0.00 | 52 | 1004.4 |
| 20260504225223 | 25 | 209 | 4.8 | 16.1 | 0.00 | 0.00 | 0.00 | 52 | 1004.2 |
| 20260504224940 | 25 | 136 | 4.8 | 16.1 | 0.00 | 0.00 | 0.00 | 53 | 1004.3 |
| 20260504224220 | 25 | 150 | 4.8 | 24.1 | 0.00 | 0.00 | 0.00 | 52 | 1004.3 |
| 20260504223720 | 25 | 190 | 3.2 | 24.1 | 0.00 | 0.00 | 0.00 | 53 | 1004.4 |
| 20260504223218 | 25 | 193 | 4.8 | 17.7 | 0.00 | 0.00 | 0.00 | 54 | 1004.4 |
| 20260504222718 | 25 | 180 | 3.2 | 17.7 | 0.00 | 0.00 | 0.00 | 52 | 1004.4 |
| 20260504222219 | 26 | 178 | 1.6 | 17.7 | 0.00 | 0.00 | 0.00 | 49 | 1004.4 |
| 20260504221939 | 26 | 184 | 3.2 | 17.7 | 0.00 | 0.00 | 0.00 | 48 | 1004.4 |
| 20260504221213 | 26 | 234 | 3.2 | 17.7 | 0.00 | 0.00 | 0.00 | 46 | 1004.4 |
| 20260504220925 | 26 | 149 | 3.2 | 17.7 | 0.00 | 0.00 | 0.00 | 47 | 1004.6 |
| 20260504220201 | 26 | 206 | 3.2 | 16.1 | 0.00 | 0.00 | 0.00 | 46 | 1004.6 |
| 20260504215656 | 26 | 131 | 3.2 | 16.1 | 0.00 | 0.00 | 0.00 | 48 | 1004.4 |
| 20260504215155 | 26 | 219 | 3.2 | 14.5 | 0.00 | 0.00 | 0.00 | 47 | 1004.5 |
| 20260504214656 | 26 | 195 | 3.2 | 14.5 | 0.00 | 0.00 | 0.00 | 46 | 1004.6 |
| 20260504214411 | 26 | 178 | 3.2 | 22.5 | 0.00 | 0.00 | 0.00 | 46 | 1004.6 |
| 20260504214255 | 26 | 170 | 1.6 | 16.1 | 0.00 | 0.00 | 0.00 | 47 | 1004.5 |
| 20260504213153 | 26 | 163 | 4.8 | 22.5 | 0.00 | 0.00 | 0.00 | 49 | 1004.6 |
| 20260504212652 | 26 | 200 | 3.2 | 17.7 | 0.00 | 0.00 | 0.00 | 46 | 1004.6 |
| 20260504212204 | 27 | 198 | 3.2 | 17.7 | 0.00 | 0.00 | 0.00 | 44 | 1004.7 |
| 20260504211651 | 26 | 194 | 4.8 | 17.7 | 0.00 | 0.00 | 0.00 | 46 | 1004.8 |
| 20260504211205 | 26 | 161 | 4.8 | 22.5 | 0.00 | 0.00 | 0.00 | 49 | 1004.7 |
| 20260504210653 | 26 | 163 | 8.0 | 22.5 | 0.00 | 0.00 | 0.00 | 47 | 1004.8 |
| 20260504210202 | 26 | 144 | 4.8 | 22.5 | 0.00 | 0.00 | 0.00 | 47 | 1004.8 |
| 20260504205648 | 26 | 240 | 6.4 | 20.9 | 0.00 | 0.00 | 0.00 | 45 | 1004.9 |
| 20260504205147 | 26 | 167 | 6.4 | 19.3 | 0.00 | 0.00 | 0.00 | 45 | 1005.0 |
| 20260504204648 | 27 | 205 | 3.2 | 17.7 | 0.00 | 0.00 | 0.00 | 46 | 1005.0 |
| 20260504204149 | 26 | 240 | 3.2 | 20.9 | 0.00 | 0.00 | 0.00 | 48 | 1005.1 |
| 20260504203909 | 26 | 188 | 4.8 | 20.9 | 0.00 | 0.00 | 0.00 | 48 | 1005.2 |
| 20260504203147 | 26 | 192 | 4.8 | 29.0 | 0.00 | 0.00 | 0.00 | 47 | 1005.3 |
| 20260504202915 | 27 | 194 | 4.8 | 29.0 | 0.00 | 0.00 | 0.00 | 46 | 1005.4 |
| 20260504202149 | 27 | 194 | 3.2 | 22.5 | 0.00 | 0.00 | 0.00 | 47 | 1005.4 |
| 20260504201648 | 27 | 195 | 1.6 | 11.3 | 0.00 | 0.00 | 0.00 | 48 | 1005.4 |
| 20260504201147 | 27 | 222 | 1.6 | 14.5 | 0.00 | 0.00 | 0.00 | 49 | 1005.5 |
| 20260504200911 | 27 | 305 | 3.2 | 22.5 | 0.00 | 0.00 | 0.00 | 46 | 1005.7 |
| 20260504200149 | 26 | 234 | 3.2 | 22.5 | 0.00 | 0.00 | 0.00 | 46 | 1005.8 |
| 20260504200129 | 26 | 159 | 3.2 | 11.3 | 0.00 | 0.00 | 0.00 | 47 | 1005.6 |
| 20260504195636 | 26 | 184 | 3.2 | 12.9 | 0.00 | 0.00 | 0.00 | 48 | 1005.7 |
| 20260504194647 | 26 | 190 | 3.2 | 20.9 | 0.00 | 0.00 | 0.00 | 47 | 1005.8 |
| 20260504194147 | 26 | 131 | 4.8 | 22.5 | 0.00 | 0.00 | 0.00 | 48 | 1005.7 |
| 20260504193649 | 26 | 263 | 6.4 | 22.5 | 0.00 | 0.00 | 0.00 | 48 | 1005.8 |
| 20260504193147 | 26 | 221 | 4.8 | 14.5 | 0.00 | 0.00 | 0.00 | 47 | 1005.8 |
| 20260504192642 | 26 | 252 | 4.8 | 24.1 | 0.00 | 0.00 | 0.00 | 47 | 1005.9 |
| 20260504192134 | 26 | 236 | 3.2 | 24.1 | 0.00 | 0.00 | 0.00 | 49 | 1005.9 |
| 20260504191856 | 27 | 171 | 1.6 | 11.3 | 0.00 | 0.00 | 0.00 | 49 | 1006.0 |
| 20260504191123 | 26 | 222 | 1.6 | 12.9 | 0.00 | 0.00 | 0.00 | 49 | 1006.0 |
| 20260504190615 | 26 | 148 | 3.2 | 24.1 | 0.00 | 0.00 | 0.00 | 49 | 1006.0 |
| 20260504190110 | 26 | 140 | 6.4 | 25.7 | 0.00 | 0.00 | 0.00 | 48 | 1005.9 |
| 20260504185604 | 26 | 182 | 6.4 | 25.7 | 0.00 | 0.00 | 0.00 | 48 | 1006.1 |
| 20260504185058 | 26 | 173 | 6.4 | 19.3 | 0.00 | 0.00 | 0.00 | 48 | 1006.0 |
| 20260504184552 | 26 | 159 | 6.4 | 27.4 | 0.00 | 0.00 | 0.00 | 50 | 1006.0 |
| 20260504184317 | 26 | 194 | 6.4 | 27.4 | 0.00 | 0.00 | 0.00 | 49 | 1006.3 |
| 20260504183540 | 26 | 175 | 4.8 | 19.3 | 0.00 | 0.00 | 0.00 | 48 | 1006.4 |
| 20260504183034 | 26 | 214 | 4.8 | 22.5 | 0.00 | 0.00 | 0.00 | 49 | 1006.5 |
| 20260504182749 | 26 | 171 | 3.2 | 25.7 | 0.00 | 0.00 | 0.00 | 50 | 1006.6 |
| 20260504182233 | 26 | 211 | 1.6 | 16.1 | 0.00 | 0.00 | 0.00 | 51 | 1006.5 |
| 20260504182113 | 26 | 209 | 3.2 | 25.7 | 0.00 | 0.00 | 0.00 | 48 | 1006.6 |
| 20260504181009 | 26 | 179 | 3.2 | 20.9 | 0.00 | 0.00 | 0.00 | 49 | 1006.7 |
| 20260504180503 | 26 | 193 | 3.2 | 20.9 | 0.00 | 0.00 | 0.00 | 50 | 1006.9 |
| 20260504175958 | 26 | 182 | 3.2 | 25.7 | 0.00 | 0.00 | 0.00 | 48 | 1006.7 |
| 20260504175452 | 26 | 244 | 3.2 | 25.7 | 0.00 | 0.00 | 0.00 | 48 | 1006.7 |
| 20260504174946 | 26 | 201 | 1.6 | 19.3 | 0.00 | 0.00 | 0.00 | 49 | 1006.6 |
| 20260504174440 | 26 | 198 | 1.6 | 19.3 | 0.00 | 0.00 | 0.00 | 48 | 1007.0 |
| 20260504173934 | 26 | 204 | 1.6 | 9.7 | 0.00 | 0.00 | 0.00 | 47 | 1006.9 |
| 20260504173428 | 26 | 180 | 3.2 | 12.9 | 0.00 | 0.00 | 0.00 | 48 | 1007.1 |
| 20260504172922 | 26 | 154 | 3.2 | 12.9 | 0.00 | 0.00 | 0.00 | 47 | 1007.3 |
| 20260504172416 | 25 | 286 | 1.6 | 12.9 | 0.00 | 0.00 | 0.00 | 50 | 1007.2 |
| 20260504172133 | 25 | 210 | 3.2 | 24.1 | 0.00 | 0.00 | 0.00 | 49 | 1007.2 |
| 20260504171405 | 25 | 217 | 3.2 | 24.1 | 0.00 | 0.00 | 0.00 | 50 | 1007.4 |
| 20260504170858 | 25 | 260 | 3.2 | 14.5 | 0.00 | 0.00 | 0.00 | 46 | 1007.4 |
| 20260504170352 | 25 | 188 | 3.2 | 27.4 | 0.00 | 0.00 | 0.00 | 50 | 1007.3 |
| 20260504160253 | 24 | 113 | 3.2 | 19.3 | 0.00 | 0.00 | 0.00 | 49 | 1008.0 |
| 20260504151140 | 23 | 163 | 1.6 | 14.5 | 0.00 | 0.00 | 0.00 | 53 | 1008.2 |
| 20260504150633 | 23 | 153 | 1.6 | 11.3 | 0.00 | 0.00 | 0.00 | 53 | 1008.2 |
| 20260504150128 | 22 | 210 | 3.2 | 19.3 | 0.00 | 0.00 | 0.00 | 54 | 1008.3 |
| 20260504141028 | 21 | 190 | 1.6 | 19.3 | 0.00 | 0.00 | 0.00 | 58 | 1008.9 |
| 20260504140522 | 21 | 215 | 3.2 | 19.3 | 0.00 | 0.00 | 0.00 | 55 | 1008.8 |
| 20260504130428 | 18 | 109 | 1.6 | 16.1 | 0.00 | 0.00 | 0.00 | 60 | 1009.0 |